Time,TemperatureF,DewpointF,PressureIn,WindDirection,WindDirectionDegrees,WindSpeedMPH,WindSpeedGustMPH,Humidity,HourlyPrecipIn,Conditions,Clouds,dailyrainin,SolarRadiationWatts/m^2,SoftwareType,DateUTC
2013-01-12 00:01:00,39.0,38.0,-100.00,SE,142,1.0,1.0,96,0.01,,,0.06,0.000000,,2013-01-12 05:01:00,
2013-01-12 00:32:00,39.0,38.0,-100.00,SE,142,1.0,1.0,96,0.01,,,0.06,0.000000,,2013-01-12 05:32:00,
2013-01-12 00:42:00,39.0,38.0,-100.00,SE,142,1.0,1.0,96,0.01,,,0.06,0.000000,,2013-01-12 05:42:00,
2013-01-12 00:53:00,39.0,38.0,-100.00,SE,142,1.0,1.0,96,0.01,,,0.06,0.000000,,2013-01-12 05:53:00,
2013-01-12 01:01:00,39.0,38.0,-100.00,NNE,25,0.0,2.0,96,0.00,,,0.06,0.000000,,2013-01-12 06:01:00,
2013-01-12 01:33:00,39.0,38.0,-100.00,NNE,25,0.0,2.0,96,0.00,,,0.06,0.000000,,2013-01-12 06:33:00,
2013-01-12 01:43:00,39.0,38.0,-100.00,NNE,25,0.0,2.0,96,0.00,,,0.06,0.000000,,2013-01-12 06:43:00,
2013-01-12 01:53:00,39.0,38.0,-100.00,NNE,25,0.0,2.0,96,0.00,,,0.06,0.000000,,2013-01-12 06:53:00,
2013-01-12 02:01:00,39.0,38.0,-100.00,NNE,31,0.0,1.0,96,0.00,,,0.06,0.000000,,2013-01-12 07:01:00,
2013-01-12 02:32:00,39.0,38.0,-100.00,NNE,31,0.0,1.0,96,0.00,,,0.06,0.000000,,2013-01-12 07:32:00,
2013-01-12 02:42:00,39.0,38.0,-100.00,NNE,31,0.0,1.0,96,0.00,,,0.06,0.000000,,2013-01-12 07:42:00,
2013-01-12 02:53:00,39.0,38.0,-100.00,NNE,31,0.0,1.0,96,0.00,,,0.06,0.000000,,2013-01-12 07:53:00,
2013-01-12 03:01:00,39.0,38.0,-100.00,SSE,159,1.0,3.0,96,0.00,,,0.06,0.000000,,2013-01-12 08:01:00,
2013-01-12 03:32:00,39.0,38.0,-100.00,SSE,159,1.0,3.0,96,0.00,,,0.06,0.000000,,2013-01-12 08:32:00,
2013-01-12 03:42:00,39.0,38.0,-100.00,SSE,159,1.0,3.0,96,0.00,,,0.06,0.000000,,2013-01-12 08:42:00,
2013-01-12 03:53:00,39.0,38.0,-100.00,SSE,159,1.0,3.0,96,0.00,,,0.06,0.000000,,2013-01-12 08:53:00,
2013-01-12 04:01:00,39.0,38.0,-100.00,SSW,211,1.0,4.0,96,0.00,,,0.06,0.000000,,2013-01-12 09:01:00,
2013-01-12 04:22:00,39.0,38.0,-100.00,SSW,211,1.0,4.0,96,0.00,,,0.06,0.000000,,2013-01-12 09:22:00,
2013-01-12 04:32:00,39.0,38.0,-100.00,SSW,211,1.0,4.0,96,0.00,,,0.06,0.000000,,2013-01-12 09:32:00,
2013-01-12 04:43:00,39.0,38.0,-100.00,SSW,211,1.0,4.0,96,0.00,,,0.06,0.000000,,2013-01-12 09:43:00,
2013-01-12 04:53:00,39.0,38.0,-100.00,SSW,211,1.0,4.0,96,0.00,,,0.06,0.000000,,2013-01-12 09:53:00,
2013-01-12 05:01:00,38.0,37.0,-100.00,South,185,1.0,5.0,96,0.00,,,0.06,0.000000,,2013-01-12 10:01:00,
2013-01-12 05:32:00,38.0,37.0,-100.00,South,185,1.0,5.0,96,0.00,,,0.06,0.000000,,2013-01-12 10:32:00,
2013-01-12 05:43:00,38.0,37.0,-100.00,South,185,1.0,5.0,96,0.00,,,0.06,0.000000,,2013-01-12 10:43:00,
2013-01-12 05:52:00,38.0,37.0,-100.00,South,185,1.0,5.0,96,0.00,,,0.06,0.000000,,2013-01-12 10:52:00,
2013-01-12 06:01:00,38.0,37.0,-100.00,NE,40,2.0,4.0,96,0.00,,,0.06,0.000000,,2013-01-12 11:01:00,
2013-01-12 06:22:00,38.0,37.0,-100.00,NE,40,2.0,4.0,96,0.00,,,0.06,0.000000,,2013-01-12 11:22:00,
2013-01-12 06:33:00,38.0,37.0,-100.00,NE,40,2.0,4.0,96,0.00,,,0.06,0.000000,,2013-01-12 11:33:00,
2013-01-12 06:43:00,38.0,37.0,-100.00,NE,40,2.0,4.0,96,0.00,,,0.06,0.000000,,2013-01-12 11:43:00,
2013-01-12 06:53:00,38.0,37.0,-100.00,NE,40,2.0,4.0,96,0.00,,,0.06,0.000000,,2013-01-12 11:53:00,
2013-01-12 07:01:00,38.0,37.0,-100.00,SSW,213,1.0,6.0,96,0.00,,,0.06,0.000000,,2013-01-12 12:01:00,
2013-01-12 07:33:00,38.0,37.0,-100.00,SSW,213,1.0,6.0,96,0.00,,,0.06,0.000000,,2013-01-12 12:33:00,
2013-01-12 07:43:00,38.0,37.0,-100.00,SSW,213,1.0,6.0,96,0.00,,,0.06,0.000000,,2013-01-12 12:43:00,
2013-01-12 07:53:00,38.0,37.0,-100.00,SSW,213,1.0,6.0,96,0.00,,,0.06,0.000000,,2013-01-12 12:53:00,
2013-01-12 08:01:00,39.0,38.0,-100.00,North,5,1.0,4.0,96,0.00,,,0.06,0.000000,,2013-01-12 13:01:00,
2013-01-12 08:33:00,39.0,38.0,-100.00,North,5,1.0,4.0,96,0.00,,,0.06,0.000000,,2013-01-12 13:33:00,
2013-01-12 08:43:00,39.0,38.0,-100.00,North,5,1.0,4.0,96,0.00,,,0.06,0.000000,,2013-01-12 13:43:00,
2013-01-12 08:53:00,39.0,38.0,-100.00,North,5,1.0,4.0,96,0.00,,,0.06,0.000000,,2013-01-12 13:53:00,
2013-01-12 09:01:00,42.0,41.0,-100.00,NE,51,2.0,4.0,96,0.00,,,0.04,0.000000,,2013-01-12 14:01:00,
2013-01-12 09:33:00,42.0,41.0,-100.00,NE,51,2.0,4.0,96,0.00,,,0.04,0.000000,,2013-01-12 14:33:00,
2013-01-12 09:43:00,42.0,41.0,-100.00,NE,51,2.0,4.0,96,0.00,,,0.04,0.000000,,2013-01-12 14:43:00,
2013-01-12 09:53:00,42.0,41.0,-100.00,NE,51,2.0,4.0,96,0.00,,,0.04,0.000000,,2013-01-12 14:53:00,
2013-01-12 10:01:00,45.0,44.0,-100.00,NNE,25,2.0,5.0,96,0.00,,,0.02,0.000000,,2013-01-12 15:01:00,
2013-01-12 10:23:00,45.0,44.0,-100.00,NNE,25,2.0,5.0,96,0.00,,,0.02,0.000000,,2013-01-12 15:23:00,
2013-01-12 10:34:00,45.0,44.0,-100.00,NNE,25,2.0,5.0,96,0.00,,,0.02,0.000000,,2013-01-12 15:34:00,
2013-01-12 10:43:00,45.0,44.0,-100.00,NNE,25,2.0,5.0,96,0.00,,,0.02,0.000000,,2013-01-12 15:43:00,
2013-01-12 10:53:00,45.0,44.0,-100.00,NNE,25,2.0,5.0,96,0.00,,,0.02,0.000000,,2013-01-12 15:53:00,
2013-01-12 11:01:00,52.0,51.0,-100.00,SE,127,2.0,4.0,96,0.00,,,0.01,0.000000,,2013-01-12 16:01:00,
2013-01-12 11:33:00,52.0,51.0,-100.00,SE,127,2.0,4.0,96,0.00,,,0.01,0.000000,,2013-01-12 16:33:00,
2013-01-12 11:43:00,52.0,51.0,-100.00,SE,127,2.0,4.0,96,0.00,,,0.01,0.000000,,2013-01-12 16:43:00,
2013-01-12 11:53:00,52.0,51.0,-100.00,SE,127,2.0,4.0,96,0.00,,,0.01,0.000000,,2013-01-12 16:53:00,
2013-01-12 12:01:00,59.0,53.0,-100.00,SSW,193,2.0,4.0,81,0.00,,,0.01,0.000000,,2013-01-12 17:01:00,
2013-01-12 12:33:00,59.0,53.0,-100.00,SSW,193,2.0,4.0,81,0.00,,,0.01,0.000000,,2013-01-12 17:33:00,
2013-01-12 12:43:00,59.0,53.0,-100.00,SSW,193,2.0,4.0,81,0.00,,,0.01,0.000000,,2013-01-12 17:43:00,
2013-01-12 12:53:00,59.0,53.0,-100.00,SSW,193,2.0,4.0,81,0.00,,,0.01,0.000000,,2013-01-12 17:53:00,
2013-01-12 13:01:00,61.0,51.0,-100.00,SE,135,1.0,5.0,70,0.00,,,0.01,0.000000,,2013-01-12 18:01:00,
2013-01-12 13:33:00,61.0,51.0,-100.00,SE,135,1.0,5.0,70,0.00,,,0.01,0.000000,,2013-01-12 18:33:00,
2013-01-12 13:43:00,61.0,51.0,-100.00,SE,135,1.0,5.0,70,0.00,,,0.01,0.000000,,2013-01-12 18:43:00,
2013-01-12 13:53:00,61.0,51.0,-100.00,SE,135,1.0,5.0,70,0.00,,,0.01,0.000000,,2013-01-12 18:53:00,
2013-01-12 14:01:00,67.0,53.0,-100.00,ESE,114,2.0,5.0,61,0.00,,,0.01,0.000000,,2013-01-12 19:01:00,
2013-01-12 14:23:00,67.0,53.0,-100.00,ESE,114,2.0,5.0,61,0.00,,,0.01,0.000000,,2013-01-12 19:23:00,
2013-01-12 14:33:00,67.0,53.0,-100.00,ESE,114,2.0,5.0,61,0.00,,,0.01,0.000000,,2013-01-12 19:33:00,
2013-01-12 14:43:00,67.0,53.0,-100.00,ESE,114,2.0,5.0,61,0.00,,,0.01,0.000000,,2013-01-12 19:43:00,
2013-01-12 14:53:00,67.0,53.0,-100.00,ESE,114,2.0,5.0,61,0.00,,,0.01,0.000000,,2013-01-12 19:53:00,
2013-01-12 15:01:00,69.0,55.0,-100.00,SSW,213,3.0,6.0,61,0.00,,,0.01,0.000000,,2013-01-12 20:01:00,
2013-01-12 15:33:00,69.0,55.0,-100.00,SSW,213,3.0,6.0,61,0.00,,,0.01,0.000000,,2013-01-12 20:33:00,
2013-01-12 15:43:00,69.0,55.0,-100.00,SSW,213,3.0,6.0,61,0.00,,,0.01,0.000000,,2013-01-12 20:43:00,
2013-01-12 15:53:00,69.0,55.0,-100.00,SSW,213,3.0,6.0,61,0.00,,,0.01,0.000000,,2013-01-12 20:53:00,
2013-01-12 16:01:00,65.0,53.0,-100.00,SSW,209,2.0,6.0,64,0.00,,,0.01,0.000000,,2013-01-12 21:01:00,
2013-01-12 16:33:00,65.0,53.0,-100.00,SSW,209,2.0,6.0,64,0.00,,,0.01,0.000000,,2013-01-12 21:33:00,
2013-01-12 16:43:00,65.0,53.0,-100.00,SSW,209,2.0,6.0,64,0.00,,,0.01,0.000000,,2013-01-12 21:43:00,
2013-01-12 16:53:00,65.0,53.0,-100.00,SSW,209,2.0,6.0,64,0.00,,,0.01,0.000000,,2013-01-12 21:53:00,
2013-01-12 17:01:00,63.0,52.0,-100.00,SW,230,2.0,7.0,68,0.00,,,0.01,0.000000,,2013-01-12 22:01:00,
2013-01-12 17:33:00,63.0,52.0,-100.00,SW,230,2.0,7.0,68,0.00,,,0.01,0.000000,,2013-01-12 22:33:00,
2013-01-12 17:43:00,63.0,52.0,-100.00,SW,230,2.0,7.0,68,0.00,,,0.01,0.000000,,2013-01-12 22:43:00,
2013-01-12 17:53:00,63.0,52.0,-100.00,SW,230,2.0,7.0,68,0.00,,,0.01,0.000000,,2013-01-12 22:53:00,
2013-01-12 18:01:00,60.0,53.0,-100.00,SW,222,2.0,6.0,77,0.00,,,0.01,0.000000,,2013-01-12 23:01:00,
2013-01-12 18:33:00,60.0,53.0,-100.00,SW,222,2.0,6.0,77,0.00,,,0.01,0.000000,,2013-01-12 23:33:00,
2013-01-12 18:43:00,60.0,53.0,-100.00,SW,222,2.0,6.0,77,0.00,,,0.01,0.000000,,2013-01-12 23:43:00,
2013-01-12 18:53:00,60.0,53.0,-100.00,SW,222,2.0,6.0,77,0.00,,,0.01,0.000000,,2013-01-12 23:53:00,
2013-01-12 19:01:00,59.0,53.0,-100.00,NNE,27,0.0,5.0,80,0.00,,,0.01,0.000000,,2013-01-13 00:01:00,
2013-01-12 19:33:00,59.0,53.0,-100.00,NNE,27,0.0,5.0,80,0.00,,,0.01,0.000000,,2013-01-13 00:33:00,
2013-01-12 19:43:00,59.0,53.0,-100.00,NNE,27,0.0,5.0,80,0.00,,,0.01,0.000000,,2013-01-13 00:43:00,
2013-01-12 19:53:00,59.0,53.0,-100.00,NNE,27,0.0,5.0,80,0.00,,,0.01,0.000000,,2013-01-13 00:53:00,
2013-01-12 20:01:00,59.0,52.0,-100.00,West,277,0.0,0.0,78,0.00,,,0.01,0.000000,,2013-01-13 01:01:00,
2013-01-12 20:33:00,59.0,52.0,-100.00,West,277,0.0,0.0,78,0.00,,,0.01,0.000000,,2013-01-13 01:33:00,
2013-01-12 20:43:00,59.0,52.0,-100.00,West,277,0.0,0.0,78,0.00,,,0.01,0.000000,,2013-01-13 01:43:00,
2013-01-12 20:53:00,59.0,52.0,-100.00,West,277,0.0,0.0,78,0.00,,,0.01,0.000000,,2013-01-13 01:53:00,
2013-01-12 21:01:00,58.0,53.0,-100.00,SW,217,2.0,5.0,83,0.00,,,0.01,0.000000,,2013-01-13 02:01:00,
2013-01-12 21:23:00,58.0,53.0,-100.00,SW,217,2.0,5.0,83,0.00,,,0.01,0.000000,,2013-01-13 02:23:00,
2013-01-12 21:33:00,58.0,53.0,-100.00,SW,217,2.0,5.0,83,0.00,,,0.01,0.000000,,2013-01-13 02:33:00,
2013-01-12 21:43:00,58.0,53.0,-100.00,SW,217,2.0,5.0,83,0.00,,,0.01,0.000000,,2013-01-13 02:43:00,
2013-01-12 21:53:00,58.0,53.0,-100.00,SW,217,2.0,5.0,83,0.00,,,0.01,0.000000,,2013-01-13 02:53:00,
2013-01-12 22:01:00,59.0,54.0,-100.00,SW,216,4.0,9.0,84,0.00,,,0.01,0.000000,,2013-01-13 03:01:00,
2013-01-12 22:22:00,59.0,54.0,-100.00,SW,216,4.0,9.0,84,0.00,,,0.01,0.000000,,2013-01-13 03:22:00,
2013-01-12 22:33:00,59.0,54.0,-100.00,SW,216,4.0,9.0,84,0.00,,,0.01,0.000000,,2013-01-13 03:33:00,
2013-01-12 22:43:00,59.0,54.0,-100.00,SW,216,4.0,9.0,84,0.00,,,0.01,0.000000,,2013-01-13 03:43:00,
2013-01-12 22:53:00,59.0,54.0,-100.00,SW,216,4.0,9.0,84,0.00,,,0.01,0.000000,,2013-01-13 03:53:00,
2013-01-12 23:01:00,57.0,54.0,-100.00,SSW,212,2.0,6.0,89,0.00,,,0.01,0.000000,,2013-01-13 04:01:00,
2013-01-12 23:33:00,57.0,54.0,-100.00,SSW,212,2.0,6.0,89,0.00,,,0.01,0.000000,,2013-01-13 04:33:00,
2013-01-12 23:43:00,57.0,54.0,-100.00,SSW,212,2.0,6.0,89,0.00,,,0.01,0.000000,,2013-01-13 04:43:00,
2013-01-12 23:53:00,57.0,54.0,-100.00,SSW,212,2.0,6.0,89,0.00,,,0.01,0.000000,,2013-01-13 04:53:00,